CheckWX is a tool to help pilots better visualize weather data.  It is not intended as a substitute for an official pre-flight weather briefing.

13:46:31 UTC

D25 METAR
Manitowish Waters Airport
Manitowish Waters, Wisconsin, USA
Current

32 mins ago

KD25 201315Z AUTO 33009KT 10SM CLR 19/19 A2987 RMK AO2 LTG DSNT SW T01910190
Observed
Jul-20 @ 13:15 UTC
Wind
  • 330° at 9 KTS
Visibility
10 SM
Flight Rules
VFR
Cloud Levels
  • Clear skies
Temperature
19°C / 66°F
Dewpoint
19°C / 66°F
Humidity
100%
Altimeter
29.87" Hg
Pressure
1011.52 hPa
Previous

52 mins ago

KD25 201255Z AUTO 33004KT 10SM CLR 18/18 A2984 RMK AO2 LTG DSNT SW T01830183
Observed
Jul-20 @ 12:55 UTC
Wind
  • 330° at 4 KTS
Visibility
10 SM
Flight Rules
VFR
Cloud Levels
  • Clear skies
Temperature
18°C / 64°F
Dewpoint
18°C / 64°F
Humidity
100%
Altimeter
29.84" Hg
Pressure
1010.52 hPa
Previous

1 hour ago

KD25 201235Z AUTO 00000KT 10SM CLR 18/18 A2984 RMK AO2 T01760176
Observed
Jul-20 @ 12:35 UTC
Visibility
10 SM
Flight Rules
VFR
Cloud Levels
  • Clear skies
Temperature
18°C / 64°F
Dewpoint
18°C / 64°F
Humidity
100%
Altimeter
29.84" Hg
Pressure
1010.52 hPa